Time,TemperatureF,DewpointF,PressureIn,WindDirection,WindDirectionDegrees,WindSpeedMPH,WindSpeedGustMPH,Humidity,HourlyPrecipIn,Conditions,Clouds,dailyrainin,SoftwareType,DateUTC
2013-04-21 00:01:00,49.7,44.4,30.13,North,0,0.0,0.0,82,0.00,,,0.00,WUHU216HW,2013-04-21 07:01:00,
2013-04-21 00:06:00,49.9,44.6,30.13,North,0,0.0,0.0,82,0.00,,,0.00,WUHU216HW,2013-04-21 07:06:00,
2013-04-21 00:11:00,49.7,44.4,30.13,North,0,0.0,0.0,82,0.00,,,0.00,WUHU216HW,2013-04-21 07:11:00,
2013-04-21 00:16:00,49.7,44.4,30.12,North,0,0.0,0.0,82,0.00,,,0.00,WUHU216HW,2013-04-21 07:16:00,
2013-04-21 00:21:00,50.0,44.7,30.12,North,0,0.0,0.0,82,0.00,,,0.00,WUHU216HW,2013-04-21 07:21:00,
2013-04-21 00:26:00,50.2,44.9,30.12,North,0,0.0,0.0,82,0.00,,,0.00,WUHU216HW,2013-04-21 07:26:00,
2013-04-21 00:31:00,50.0,44.7,30.12,North,0,0.0,0.0,82,0.00,,,0.00,WUHU216HW,2013-04-21 07:31:00,
2013-04-21 00:36:00,49.9,44.6,30.12,North,0,0.0,0.0,82,0.00,,,0.00,WUHU216HW,2013-04-21 07:36:00,
2013-04-21 00:41:00,49.7,44.4,30.12,North,0,0.0,0.0,82,0.00,,,0.00,WUHU216HW,2013-04-21 07:41:00,
2013-04-21 00:46:00,49.5,43.8,30.12,North,0,0.0,0.0,81,0.00,,,0.00,WUHU216HW,2013-04-21 07:46:00,
2013-04-21 00:51:00,49.5,44.2,30.12,North,0,0.0,0.0,82,0.00,,,0.00,WUHU216HW,2013-04-21 07:51:00,
2013-04-21 00:56:00,49.9,44.6,30.12,North,0,0.0,0.0,82,0.00,,,0.00,WUHU216HW,2013-04-21 07:56:00,
2013-04-21 01:01:00,49.9,44.6,30.12,North,0,0.0,0.0,82,0.00,,,0.00,WUHU216HW,2013-04-21 08:01:00,
2013-04-21 01:06:00,50.0,44.7,30.12,North,0,0.0,0.0,82,0.00,,,0.00,WUHU216HW,2013-04-21 08:06:00,
2013-04-21 01:11:00,49.9,44.2,30.12,North,0,0.0,0.0,81,0.00,,,0.00,WUHU216HW,2013-04-21 08:11:00,
2013-04-21 01:16:00,49.7,44.0,30.12,North,0,0.0,0.0,81,0.00,,,0.00,WUHU216HW,2013-04-21 08:16:00,
2013-04-21 01:21:00,49.3,43.7,30.12,North,0,0.0,0.0,81,0.00,,,0.00,WUHU216HW,2013-04-21 08:21:00,
2013-04-21 01:26:00,49.3,43.7,30.11,North,0,0.0,0.0,81,0.00,,,0.00,WUHU216HW,2013-04-21 08:26:00,
2013-04-21 01:31:00,49.1,43.5,30.11,North,0,0.0,0.0,81,0.00,,,0.00,WUHU216HW,2013-04-21 08:31:00,
2013-04-21 01:36:00,49.0,43.4,30.11,North,0,0.0,0.0,81,0.00,,,0.00,WUHU216HW,2013-04-21 08:36:00,
2013-04-21 01:41:00,49.1,43.5,30.11,North,0,0.0,0.0,81,0.00,,,0.00,WUHU216HW,2013-04-21 08:41:00,
2013-04-21 01:46:00,49.1,43.8,30.11,North,0,0.0,0.0,82,0.00,,,0.00,WUHU216HW,2013-04-21 08:46:00,
2013-04-21 01:51:00,49.3,44.0,30.10,North,0,0.0,0.0,82,0.00,,,0.00,WUHU216HW,2013-04-21 08:51:00,
2013-04-21 01:56:00,49.3,44.0,30.10,North,0,0.0,0.0,82,0.00,,,0.00,WUHU216HW,2013-04-21 08:56:00,
2013-04-21 02:01:00,49.1,43.5,30.10,North,0,0.0,0.0,81,0.00,,,0.00,WUHU216HW,2013-04-21 09:01:00,
2013-04-21 02:06:00,49.0,43.4,30.10,North,0,0.0,0.0,81,0.00,,,0.00,WUHU216HW,2013-04-21 09:06:00,
2013-04-21 02:11:00,49.0,43.7,30.10,North,0,0.0,0.0,82,0.00,,,0.00,WUHU216HW,2013-04-21 09:11:00,
2013-04-21 02:16:00,49.0,43.7,30.10,North,0,0.0,0.0,82,0.00,,,0.00,WUHU216HW,2013-04-21 09:16:00,
2013-04-21 02:21:00,48.8,43.5,30.10,North,0,0.0,0.0,82,0.00,,,0.00,WUHU216HW,2013-04-21 09:21:00,
2013-04-21 02:26:00,48.6,43.3,30.10,North,0,0.0,0.0,82,0.00,,,0.00,WUHU216HW,2013-04-21 09:26:00,
2013-04-21 02:31:00,48.4,43.1,30.09,North,0,0.0,0.0,82,0.00,,,0.00,WUHU216HW,2013-04-21 09:31:00,
2013-04-21 02:36:00,48.4,43.1,30.09,North,0,0.0,0.0,82,0.00,,,0.00,WUHU216HW,2013-04-21 09:36:00,
2013-04-21 02:41:00,48.4,43.5,30.09,North,0,0.0,0.0,83,0.00,,,0.00,WUHU216HW,2013-04-21 09:41:00,
2013-04-21 02:46:00,48.2,43.3,30.09,North,0,0.0,0.0,83,0.00,,,0.00,WUHU216HW,2013-04-21 09:46:00,
2013-04-21 02:51:00,48.2,42.9,30.09,North,0,0.0,0.0,82,0.00,,,0.00,WUHU216HW,2013-04-21 09:51:00,
2013-04-21 02:56:00,48.1,42.8,30.09,North,0,0.0,0.0,82,0.00,,,0.00,WUHU216HW,2013-04-21 09:56:00,
2013-04-21 03:01:00,47.9,42.9,30.09,North,0,0.0,0.0,83,0.00,,,0.00,WUHU216HW,2013-04-21 10:01:00,
2013-04-21 03:06:00,47.9,42.9,30.09,North,0,0.0,0.0,83,0.00,,,0.00,WUHU216HW,2013-04-21 10:06:00,
2013-04-21 03:11:00,47.7,43.1,30.09,North,0,0.0,0.0,84,0.00,,,0.00,WUHU216HW,2013-04-21 10:11:00,
2013-04-21 03:16:00,47.9,43.6,30.09,North,0,0.0,0.0,85,0.00,,,0.00,WUHU216HW,2013-04-21 10:16:00,
2013-04-21 03:21:00,47.9,43.9,30.09,North,0,0.0,0.0,86,0.00,,,0.00,WUHU216HW,2013-04-21 10:21:00,
2013-04-21 03:26:00,47.9,43.6,30.09,North,0,0.0,0.0,85,0.00,,,0.00,WUHU216HW,2013-04-21 10:26:00,
2013-04-21 03:31:00,47.9,43.6,30.08,North,0,0.0,0.0,85,0.00,,,0.00,WUHU216HW,2013-04-21 10:31:00,
2013-04-21 03:36:00,47.9,44.6,30.08,North,0,0.0,0.0,88,0.00,,,0.00,WUHU216HW,2013-04-21 10:36:00,
2013-04-21 03:41:00,47.9,44.6,30.08,North,0,0.0,0.0,88,0.00,,,0.00,WUHU216HW,2013-04-21 10:41:00,
2013-04-21 03:46:00,47.5,43.8,30.08,North,0,0.0,0.0,87,0.00,,,0.00,WUHU216HW,2013-04-21 10:46:00,
2013-04-21 03:51:00,47.2,43.2,30.07,North,0,0.0,0.0,86,0.00,,,0.00,WUHU216HW,2013-04-21 10:51:00,
2013-04-21 03:56:00,47.0,43.0,30.07,North,0,0.0,0.0,86,0.00,,,0.00,WUHU216HW,2013-04-21 10:56:00,
2013-04-21 04:01:00,46.8,42.8,30.07,North,0,0.0,0.0,86,0.00,,,0.00,WUHU216HW,2013-04-21 11:01:00,
2013-04-21 04:06:00,46.8,43.2,30.07,North,0,0.0,0.0,87,0.00,,,0.00,WUHU216HW,2013-04-21 11:06:00,
2013-04-21 04:11:00,47.2,43.8,30.07,North,0,0.0,0.0,88,0.00,,,0.00,WUHU216HW,2013-04-21 11:11:00,
2013-04-21 04:16:00,47.5,44.5,30.07,North,0,0.0,0.0,89,0.00,,,0.00,WUHU216HW,2013-04-21 11:16:00,
2013-04-21 04:21:00,47.7,45.0,30.07,North,0,0.0,0.0,90,0.00,,,0.00,WUHU216HW,2013-04-21 11:21:00,
2013-04-21 04:26:00,47.7,44.6,30.07,North,0,0.0,0.0,89,0.00,,,0.00,WUHU216HW,2013-04-21 11:26:00,
2013-04-21 04:31:00,47.5,44.2,30.07,North,0,0.0,0.0,88,0.00,,,0.00,WUHU216HW,2013-04-21 11:31:00,
2013-04-21 04:36:00,47.3,44.0,30.07,North,0,0.0,0.0,88,0.00,,,0.00,WUHU216HW,2013-04-21 11:36:00,
2013-04-21 04:41:00,47.5,44.2,30.07,North,0,0.0,0.0,88,0.00,,,0.00,WUHU216HW,2013-04-21 11:41:00,
2013-04-21 04:46:00,47.2,43.8,30.07,North,0,0.0,0.0,88,0.00,,,0.00,WUHU216HW,2013-04-21 11:46:00,
2013-04-21 04:51:00,47.2,43.8,30.07,North,0,0.0,0.0,88,0.00,,,0.00,WUHU216HW,2013-04-21 11:51:00,
2013-04-21 04:56:00,47.2,43.8,30.07,North,0,0.0,0.0,88,0.00,,,0.00,WUHU216HW,2013-04-21 11:56:00,
2013-04-21 05:01:00,47.5,44.2,30.07,North,0,0.0,0.0,88,0.00,,,0.00,WUHU216HW,2013-04-21 12:01:00,
2013-04-21 05:06:00,47.7,45.0,30.07,North,0,0.0,0.0,90,0.00,,,0.00,WUHU216HW,2013-04-21 12:06:00,
2013-04-21 05:11:00,47.5,44.5,30.07,North,0,0.0,0.0,89,0.00,,,0.00,WUHU216HW,2013-04-21 12:11:00,
2013-04-21 05:16:00,47.5,44.5,30.07,North,0,0.0,0.0,89,0.00,,,0.00,WUHU216HW,2013-04-21 12:16:00,
2013-04-21 05:21:00,47.5,44.5,30.07,North,0,0.0,0.0,89,0.00,,,0.00,WUHU216HW,2013-04-21 12:21:00,
2013-04-21 05:26:00,47.3,44.0,30.07,North,0,0.0,0.0,88,0.00,,,0.00,WUHU216HW,2013-04-21 12:26:00,
2013-04-21 05:32:00,47.2,43.8,30.07,North,0,0.0,0.0,88,0.00,,,0.00,WUHU216HW,2013-04-21 12:32:00,
2013-04-21 05:37:00,47.2,43.8,30.08,North,0,0.0,0.0,88,0.00,,,0.00,WUHU216HW,2013-04-21 12:37:00,
2013-04-21 05:42:00,47.2,43.8,30.07,North,0,0.0,0.0,88,0.00,,,0.00,WUHU216HW,2013-04-21 12:42:00,
2013-04-21 05:47:00,47.2,43.8,30.08,North,0,0.0,0.0,88,0.00,,,0.00,WUHU216HW,2013-04-21 12:47:00,
2013-04-21 05:52:00,47.2,43.8,30.08,North,0,0.0,0.0,88,0.00,,,0.00,WUHU216HW,2013-04-21 12:52:00,
2013-04-21 05:57:00,47.0,43.4,30.08,North,0,0.0,0.0,87,0.00,,,0.00,WUHU216HW,2013-04-21 12:57:00,
2013-04-21 06:02:00,46.8,43.2,30.08,North,0,0.0,0.0,87,0.00,,,0.00,WUHU216HW,2013-04-21 13:02:00,
2013-04-21 06:07:00,46.6,43.3,30.07,North,0,0.0,0.0,88,0.00,,,0.00,WUHU216HW,2013-04-21 13:07:00,
2013-04-21 06:12:00,47.2,43.6,30.07,North,0,0.0,0.0,87,0.00,,,0.00,WUHU216HW,2013-04-21 13:12:00,
2013-04-21 06:17:00,47.0,43.4,30.08,North,0,0.0,0.0,87,0.00,,,0.00,WUHU216HW,2013-04-21 13:17:00,
2013-04-21 06:22:00,46.8,42.8,30.07,North,0,0.0,0.0,86,0.00,,,0.00,WUHU216HW,2013-04-21 13:22:00,
2013-04-21 06:27:00,46.4,42.5,30.08,North,0,0.0,0.0,86,0.00,,,0.00,WUHU216HW,2013-04-21 13:27:00,
2013-04-21 06:32:00,47.0,43.4,30.08,North,0,0.0,0.0,87,0.00,,,0.00,WUHU216HW,2013-04-21 13:32:00,
2013-04-21 06:37:00,47.5,43.6,30.08,North,0,0.0,0.0,86,0.00,,,0.00,WUHU216HW,2013-04-21 13:37:00,
2013-04-21 06:42:00,47.5,43.2,30.08,North,0,0.0,0.0,85,0.00,,,0.00,WUHU216HW,2013-04-21 13:42:00,
2013-04-21 06:47:00,47.2,42.9,30.09,North,0,0.0,0.0,85,0.00,,,0.00,WUHU216HW,2013-04-21 13:47:00,
2013-04-21 06:52:00,47.2,42.9,30.09,North,0,0.0,0.0,85,0.00,,,0.00,WUHU216HW,2013-04-21 13:52:00,
2013-04-21 06:57:00,47.0,42.8,30.09,North,0,0.0,0.0,85,0.00,,,0.00,WUHU216HW,2013-04-21 13:57:00,
2013-04-21 07:02:00,47.3,43.0,30.09,North,0,0.0,0.0,85,0.00,,,0.00,WUHU216HW,2013-04-21 14:02:00,
2013-04-21 07:07:00,47.9,43.6,30.09,North,0,0.0,0.0,85,0.00,,,0.00,WUHU216HW,2013-04-21 14:07:00,
2013-04-21 07:12:00,48.2,43.6,30.09,North,0,0.0,0.0,84,0.00,,,0.00,WUHU216HW,2013-04-21 14:12:00,
2013-04-21 07:17:00,48.8,43.8,30.10,North,0,0.0,0.0,83,0.00,,,0.00,WUHU216HW,2013-04-21 14:17:00,
2013-04-21 07:22:00,49.1,44.1,30.10,North,0,0.0,0.0,83,0.00,,,0.00,WUHU216HW,2013-04-21 14:22:00,
2013-04-21 07:27:00,49.5,44.5,30.10,North,0,0.0,0.0,83,0.00,,,0.00,WUHU216HW,2013-04-21 14:27:00,
2013-04-21 07:32:00,49.5,44.8,30.10,North,0,0.0,0.0,84,0.00,,,0.00,WUHU216HW,2013-04-21 14:32:00,
2013-04-21 07:37:00,49.3,44.3,30.10,North,0,0.0,0.0,83,0.00,,,0.00,WUHU216HW,2013-04-21 14:37:00,
2013-04-21 07:42:00,49.5,44.5,30.10,North,0,0.0,0.0,83,0.00,,,0.00,WUHU216HW,2013-04-21 14:42:00,
2013-04-21 07:47:00,49.7,45.0,30.10,North,0,0.0,0.0,84,0.00,,,0.00,WUHU216HW,2013-04-21 14:47:00,
2013-04-21 07:52:00,50.6,46.2,30.11,North,0,0.0,0.0,85,0.00,,,0.00,WUHU216HW,2013-04-21 14:52:00,
2013-04-21 07:57:00,52.9,48.5,30.11,North,0,0.0,0.0,85,0.00,,,0.00,WUHU216HW,2013-04-21 14:57:00,
2013-04-21 08:02:00,56.5,51.4,30.11,North,0,0.0,0.0,83,0.00,,,0.00,WUHU216HW,2013-04-21 15:02:00,
2013-04-21 08:07:00,59.4,53.7,30.11,North,0,0.0,0.0,81,0.00,,,0.00,WUHU216HW,2013-04-21 15:07:00,
2013-04-21 08:12:00,62.6,56.0,30.11,North,0,0.0,0.0,79,0.00,,,0.00,WUHU216HW,2013-04-21 15:12:00,
2013-04-21 08:17:00,65.5,58.2,30.11,North,0,0.0,0.0,77,0.00,,,0.00,WUHU216HW,2013-04-21 15:17:00,
2013-04-21 08:22:00,67.7,58.8,30.11,North,0,0.0,0.0,73,0.00,,,0.00,WUHU216HW,2013-04-21 15:22:00,
2013-04-21 08:27:00,68.2,58.2,30.11,North,0,0.0,0.0,70,0.00,,,0.00,WUHU216HW,2013-04-21 15:27:00,
2013-04-21 08:32:00,69.1,58.1,30.11,North,0,0.0,0.0,68,0.00,,,0.00,WUHU216HW,2013-04-21 15:32:00,
2013-04-21 08:37:00,70.6,58.6,30.11,North,0,0.0,0.0,66,0.00,,,0.00,WUHU216HW,2013-04-21 15:37:00,
2013-04-21 08:42:00,72.4,60.0,30.11,North,0,0.0,0.0,65,0.00,,,0.00,WUHU216HW,2013-04-21 15:42:00,
2013-04-21 08:47:00,72.9,59.5,30.12,North,0,0.0,0.0,63,0.00,,,0.00,WUHU216HW,2013-04-21 15:47:00,
2013-04-21 08:52:00,73.4,59.1,30.11,North,0,0.0,0.0,61,0.00,,,0.00,WUHU216HW,2013-04-21 15:52:00,
2013-04-21 08:57:00,75.2,60.9,30.11,North,0,0.0,0.0,61,0.00,,,0.00,WUHU216HW,2013-04-21 15:57:00,
2013-04-21 09:02:00,77.0,61.1,30.11,North,0,0.0,0.0,58,0.00,,,0.00,WUHU216HW,2013-04-21 16:02:00,
2013-04-21 09:07:00,77.9,59.4,30.11,North,0,0.0,0.0,53,0.00,,,0.00,WUHU216HW,2013-04-21 16:07:00,
2013-04-21 09:12:00,77.6,58.1,30.11,North,0,0.0,0.0,51,0.00,,,0.00,WUHU216HW,2013-04-21 16:12:00,
2013-04-21 09:17:00,77.8,58.8,30.11,North,0,0.0,0.0,52,0.00,,,0.00,WUHU216HW,2013-04-21 16:17:00,
2013-04-21 09:22:00,79.2,60.0,30.11,North,0,0.0,0.0,52,0.00,,,0.00,WUHU216HW,2013-04-21 16:22:00,
2013-04-21 09:27:00,79.4,56.7,30.12,North,0,0.0,0.0,46,0.00,,,0.00,WUHU216HW,2013-04-21 16:27:00,
2013-04-21 09:32:00,79.9,59.0,30.12,North,0,0.0,0.0,49,0.00,,,0.00,WUHU216HW,2013-04-21 16:32:00,
2013-04-21 09:37:00,80.5,57.7,30.12,North,0,0.0,0.0,46,0.00,,,0.00,WUHU216HW,2013-04-21 16:37:00,
2013-04-21 09:42:00,79.4,56.1,30.12,North,0,0.0,0.0,45,0.00,,,0.00,WUHU216HW,2013-04-21 16:42:00,
2013-04-21 09:47:00,80.3,56.9,30.12,North,0,0.0,0.0,45,0.00,,,0.00,WUHU216HW,2013-04-21 16:47:00,
2013-04-21 09:52:00,80.8,57.4,30.12,North,0,0.0,0.0,45,0.00,,,0.00,WUHU216HW,2013-04-21 16:52:00,
2013-04-21 09:57:00,81.7,56.3,30.11,North,0,0.0,0.0,42,0.00,,,0.00,WUHU216HW,2013-04-21 16:57:00,
2013-04-21 10:02:00,81.4,54.1,30.11,North,0,0.0,0.0,39,0.00,,,0.00,WUHU216HW,2013-04-21 17:02:00,
2013-04-21 10:07:00,81.2,54.6,30.11,North,0,0.0,0.0,40,0.00,,,0.00,WUHU216HW,2013-04-21 17:07:00,
2013-04-21 10:12:00,81.5,54.2,30.11,North,0,0.0,0.0,39,0.00,,,0.00,WUHU216HW,2013-04-21 17:12:00,
2013-04-21 10:17:00,82.6,54.4,30.11,North,0,0.0,0.0,38,0.00,,,0.00,WUHU216HW,2013-04-21 17:17:00,
2013-04-21 10:22:00,81.7,51.2,30.11,North,0,0.0,0.0,35,0.00,,,0.00,WUHU216HW,2013-04-21 17:22:00,
2013-04-21 10:27:00,81.4,52.5,30.12,North,0,0.0,0.0,37,0.00,,,0.00,WUHU216HW,2013-04-21 17:27:00,
2013-04-21 10:32:00,81.0,53.7,30.12,North,0,0.0,0.0,39,0.00,,,0.00,WUHU216HW,2013-04-21 17:32:00,
2013-04-21 10:37:00,79.9,54.2,30.12,North,0,0.0,0.0,41,0.00,,,0.00,WUHU216HW,2013-04-21 17:37:00,
2013-04-21 10:42:00,80.3,55.7,30.12,North,0,0.0,0.0,43,0.00,,,0.00,WUHU216HW,2013-04-21 17:42:00,
2013-04-21 10:47:00,80.3,54.5,30.12,North,0,0.0,0.0,41,0.00,,,0.00,WUHU216HW,2013-04-21 17:47:00,
2013-04-21 10:52:00,80.3,55.1,30.12,North,0,0.0,0.0,42,0.00,,,0.00,WUHU216HW,2013-04-21 17:52:00,
2013-04-21 10:57:00,80.6,54.8,30.12,North,0,0.0,0.0,41,0.00,,,0.00,WUHU216HW,2013-04-21 17:57:00,
2013-04-21 11:02:00,80.5,55.3,30.12,North,0,0.0,0.0,42,0.00,,,0.00,WUHU216HW,2013-04-21 18:02:00,
2013-04-21 11:07:00,80.6,55.5,30.12,North,0,0.0,0.0,42,0.00,,,0.00,WUHU216HW,2013-04-21 18:07:00,
2013-04-21 11:12:00,81.2,56.5,30.11,North,0,0.0,0.0,43,0.00,,,0.00,WUHU216HW,2013-04-21 18:12:00,
2013-04-21 11:17:00,82.1,56.7,30.11,North,0,0.0,0.0,42,0.00,,,0.00,WUHU216HW,2013-04-21 18:17:00,
2013-04-21 11:22:00,82.1,56.7,30.11,North,0,0.0,0.0,42,0.00,,,0.00,WUHU216HW,2013-04-21 18:22:00,
2013-04-21 11:27:00,82.4,57.1,30.11,North,0,0.0,0.0,42,0.00,,,0.00,WUHU216HW,2013-04-21 18:27:00,
2013-04-21 11:32:00,82.4,56.4,30.11,North,0,0.0,0.0,41,0.00,,,0.00,WUHU216HW,2013-04-21 18:32:00,
2013-04-21 11:37:00,82.1,56.7,30.11,North,0,0.0,0.0,42,0.00,,,0.00,WUHU216HW,2013-04-21 18:37:00,
2013-04-21 11:42:00,82.1,56.1,30.11,North,0,0.0,0.0,41,0.00,,,0.00,WUHU216HW,2013-04-21 18:42:00,
2013-04-21 11:47:00,81.7,56.3,30.11,North,0,0.0,0.0,42,0.00,,,0.00,WUHU216HW,2013-04-21 18:47:00,
2013-04-21 11:52:00,81.0,55.7,30.11,North,0,0.0,0.0,42,0.00,,,0.00,WUHU216HW,2013-04-21 18:52:00,
2013-04-21 11:57:00,80.3,56.4,30.11,North,0,0.0,0.0,44,0.00,,,0.00,WUHU216HW,2013-04-21 18:57:00,
2013-04-21 12:02:00,80.3,55.7,30.10,North,0,0.0,0.0,43,0.00,,,0.00,WUHU216HW,2013-04-21 19:02:00,
2013-04-21 12:07:00,79.6,55.6,30.10,North,0,0.0,0.0,44,0.00,,,0.00,WUHU216HW,2013-04-21 19:07:00,
2013-04-21 12:12:00,79.6,56.3,30.10,North,0,0.0,0.0,45,0.00,,,0.00,WUHU216HW,2013-04-21 19:12:00,
2013-04-21 12:17:00,80.5,57.1,30.10,North,0,0.0,0.0,45,0.00,,,0.00,WUHU216HW,2013-04-21 19:17:00,
2013-04-21 12:22:00,81.0,57.0,30.10,North,0,0.0,0.0,44,0.00,,,0.00,WUHU216HW,2013-04-21 19:22:00,
2013-04-21 12:27:00,81.2,57.2,30.10,North,0,0.0,0.0,44,0.00,,,0.00,WUHU216HW,2013-04-21 19:27:00,
2013-04-21 12:32:00,81.4,56.7,30.10,North,0,0.0,0.0,43,0.00,,,0.00,WUHU216HW,2013-04-21 19:32:00,
2013-04-21 12:37:00,81.7,56.3,30.09,North,0,0.0,0.0,42,0.00,,,0.00,WUHU216HW,2013-04-21 19:37:00,
2013-04-21 12:42:00,82.1,56.7,30.09,North,0,0.0,0.0,42,0.00,,,0.00,WUHU216HW,2013-04-21 19:42:00,
2013-04-21 12:47:00,82.3,56.9,30.09,North,0,0.0,0.0,42,0.00,,,0.00,WUHU216HW,2013-04-21 19:47:00,
2013-04-21 12:52:00,82.8,57.3,30.09,North,0,0.0,0.0,42,0.00,,,0.00,WUHU216HW,2013-04-21 19:52:00,
2013-04-21 12:57:00,83.2,56.4,30.09,North,0,0.0,0.0,40,0.00,,,0.00,WUHU216HW,2013-04-21 19:57:00,
2013-04-21 13:02:00,83.3,56.6,30.09,North,0,0.0,0.0,40,0.00,,,0.00,WUHU216HW,2013-04-21 20:02:00,
2013-04-21 13:07:00,83.5,56.8,30.08,North,0,0.0,0.0,40,0.00,,,0.00,WUHU216HW,2013-04-21 20:07:00,
2013-04-21 13:12:00,83.5,55.2,30.08,North,0,0.0,0.0,38,0.00,,,0.00,WUHU216HW,2013-04-21 20:12:00,
2013-04-21 13:17:00,83.2,54.9,30.08,North,0,0.0,0.0,38,0.00,,,0.00,WUHU216HW,2013-04-21 20:17:00,
2013-04-21 13:22:00,82.6,54.4,30.08,North,0,0.0,0.0,38,0.00,,,0.00,WUHU216HW,2013-04-21 20:22:00,
2013-04-21 13:27:00,82.1,53.9,30.08,North,0,0.0,0.0,38,0.00,,,0.00,WUHU216HW,2013-04-21 20:27:00,
2013-04-21 13:33:00,81.7,53.6,30.08,North,0,0.0,0.0,38,0.00,,,0.00,WUHU216HW,2013-04-21 20:33:00,
2013-04-21 13:38:00,81.5,53.5,30.08,North,0,0.0,0.0,38,0.00,,,0.00,WUHU216HW,2013-04-21 20:38:00,
2013-04-21 13:43:00,81.0,52.9,30.08,North,0,0.0,0.0,38,0.00,,,0.00,WUHU216HW,2013-04-21 20:43:00,
2013-04-21 13:48:00,80.6,52.7,30.08,North,0,0.0,0.0,38,0.00,,,0.00,WUHU216HW,2013-04-21 20:48:00,
2013-04-21 13:53:00,80.3,53.1,30.08,North,0,0.0,0.0,39,0.00,,,0.00,WUHU216HW,2013-04-21 20:53:00,
2013-04-21 13:58:00,79.6,50.9,30.09,North,0,0.0,0.0,37,0.00,,,0.00,WUHU216HW,2013-04-21 20:58:00,
2013-04-21 14:03:00,78.3,51.3,30.09,North,0,0.0,0.0,39,0.00,,,0.00,WUHU216HW,2013-04-21 21:03:00,
2013-04-21 14:08:00,76.5,50.5,30.09,North,0,0.0,0.0,40,0.00,,,0.00,WUHU216HW,2013-04-21 21:08:00,
2013-04-21 14:13:00,74.3,50.3,30.09,North,0,0.0,0.0,43,0.00,,,0.00,WUHU216HW,2013-04-21 21:13:00,
2013-04-21 14:18:00,72.7,50.1,30.09,North,0,0.0,0.0,45,0.00,,,0.00,WUHU216HW,2013-04-21 21:18:00,
2013-04-21 14:23:00,72.5,50.5,30.09,North,0,0.0,0.0,46,0.00,,,0.00,WUHU216HW,2013-04-21 21:23:00,
2013-04-21 14:28:00,72.7,50.6,30.09,North,0,0.0,0.0,46,0.00,,,0.00,WUHU216HW,2013-04-21 21:28:00,
2013-04-21 14:33:00,72.4,50.3,30.08,North,0,0.0,0.0,46,0.00,,,0.00,WUHU216HW,2013-04-21 21:33:00,
2013-04-21 14:38:00,72.2,51.3,30.08,North,0,0.0,0.0,48,0.00,,,0.00,WUHU216HW,2013-04-21 21:38:00,
2013-04-21 14:43:00,72.2,51.9,30.09,North,0,0.0,0.0,49,0.00,,,0.00,WUHU216HW,2013-04-21 21:43:00,
2013-04-21 14:48:00,71.5,52.4,30.08,North,0,0.0,0.0,51,0.00,,,0.00,WUHU216HW,2013-04-21 21:48:00,
2013-04-21 14:53:00,71.6,52.6,30.08,North,0,0.0,0.0,51,0.00,,,0.00,WUHU216HW,2013-04-21 21:53:00,
2013-04-21 14:58:00,72.0,52.8,30.08,North,0,0.0,0.0,51,0.00,,,0.00,WUHU216HW,2013-04-21 21:58:00,
2013-04-21 15:03:00,71.1,52.0,30.08,North,0,0.0,0.0,51,0.00,,,0.00,WUHU216HW,2013-04-21 22:03:00,
2013-04-21 15:08:00,71.3,52.8,30.08,North,0,0.0,0.0,52,0.00,,,0.00,WUHU216HW,2013-04-21 22:08:00,
2013-04-21 15:13:00,71.1,53.0,30.08,North,0,0.0,0.0,53,0.00,,,0.00,WUHU216HW,2013-04-21 22:13:00,
2013-04-21 15:18:00,70.2,52.2,30.08,North,0,0.0,0.0,53,0.00,,,0.00,WUHU216HW,2013-04-21 22:18:00,
2013-04-21 15:23:00,69.8,52.4,30.07,North,0,0.0,0.0,54,0.00,,,0.00,WUHU216HW,2013-04-21 22:23:00,
2013-04-21 15:28:00,69.3,51.9,30.08,North,0,0.0,0.0,54,0.00,,,0.00,WUHU216HW,2013-04-21 22:28:00,
2013-04-21 15:33:00,69.5,52.6,30.07,North,0,0.0,0.0,55,0.00,,,0.00,WUHU216HW,2013-04-21 22:33:00,
2013-04-21 15:38:00,69.5,52.1,30.07,North,0,0.0,0.0,54,0.00,,,0.00,WUHU216HW,2013-04-21 22:38:00,
2013-04-21 15:43:00,69.1,52.2,30.07,North,0,0.0,0.0,55,0.00,,,0.00,WUHU216HW,2013-04-21 22:43:00,
2013-04-21 15:48:00,68.9,52.0,30.07,North,0,0.0,0.0,55,0.00,,,0.00,WUHU216HW,2013-04-21 22:48:00,
2013-04-21 15:53:00,69.1,52.8,30.06,North,0,0.0,0.0,56,0.00,,,0.00,WUHU216HW,2013-04-21 22:53:00,
2013-04-21 15:58:00,68.4,53.0,30.07,North,0,0.0,0.0,58,0.00,,,0.00,WUHU216HW,2013-04-21 22:58:00,
2013-04-21 16:03:00,68.4,52.6,30.06,North,0,0.0,0.0,57,0.00,,,0.00,WUHU216HW,2013-04-21 23:03:00,
2013-04-21 16:08:00,68.6,52.8,30.06,North,0,0.0,0.0,57,0.00,,,0.00,WUHU216HW,2013-04-21 23:08:00,
2013-04-21 16:13:00,68.8,53.4,30.06,North,0,0.0,0.0,58,0.00,,,0.00,WUHU216HW,2013-04-21 23:13:00,
2013-04-21 16:18:00,68.6,53.2,30.05,North,0,0.0,0.0,58,0.00,,,0.00,WUHU216HW,2013-04-21 23:18:00,
2013-04-21 16:23:00,68.4,53.6,30.05,North,0,0.0,0.0,59,0.00,,,0.00,WUHU216HW,2013-04-21 23:23:00,
2013-04-21 16:28:00,68.0,53.2,30.05,North,0,0.0,0.0,59,0.00,,,0.00,WUHU216HW,2013-04-21 23:28:00,
2013-04-21 16:33:00,67.9,53.0,30.06,North,0,0.0,0.0,59,0.00,,,0.00,WUHU216HW,2013-04-21 23:33:00,
2013-04-21 16:38:00,67.5,53.2,30.05,North,0,0.0,0.0,60,0.00,,,0.00,WUHU216HW,2013-04-21 23:38:00,
2013-04-21 16:43:00,67.1,53.3,30.05,North,0,0.0,0.0,61,0.00,,,0.00,WUHU216HW,2013-04-21 23:43:00,
2013-04-21 16:48:00,66.6,52.7,30.05,North,0,0.0,0.0,61,0.00,,,0.00,WUHU216HW,2013-04-21 23:48:00,
2013-04-21 16:53:00,66.2,52.5,30.05,North,0,0.0,0.0,61,0.00,,,0.00,WUHU216HW,2013-04-21 23:53:00,
2013-04-21 16:58:00,65.9,52.5,30.05,North,0,0.0,0.0,62,0.00,,,0.00,WUHU216HW,2013-04-21 23:58:00,
2013-04-21 17:03:00,65.5,52.1,30.05,North,0,0.0,0.0,62,0.00,,,0.00,WUHU216HW,2013-04-22 00:03:00,
2013-04-21 17:08:00,65.0,52.5,30.05,North,0,0.0,0.0,64,0.00,,,0.00,WUHU216HW,2013-04-22 00:08:00,
2013-04-21 17:13:00,64.6,52.1,30.05,North,0,0.0,0.0,64,0.00,,,0.00,WUHU216HW,2013-04-22 00:13:00,
2013-04-21 17:18:00,64.1,52.0,30.05,North,0,0.0,0.0,65,0.00,,,0.00,WUHU216HW,2013-04-22 00:18:00,
2013-04-21 17:23:00,63.4,51.8,30.05,North,0,0.0,0.0,66,0.00,,,0.00,WUHU216HW,2013-04-22 00:23:00,
2013-04-21 17:28:00,62.8,51.7,30.05,North,0,0.0,0.0,67,0.00,,,0.00,WUHU216HW,2013-04-22 00:28:00,
2013-04-21 17:33:00,62.3,51.6,30.05,North,0,0.0,0.0,68,0.00,,,0.00,WUHU216HW,2013-04-22 00:33:00,
2013-04-21 17:38:00,61.9,51.3,30.05,North,0,0.0,0.0,68,0.00,,,0.00,WUHU216HW,2013-04-22 00:38:00,
2013-04-21 17:43:00,61.4,51.2,30.05,North,0,0.0,0.0,69,0.00,,,0.00,WUHU216HW,2013-04-22 00:43:00,
2013-04-21 17:48:00,61.4,51.2,30.05,North,0,0.0,0.0,69,0.00,,,0.00,WUHU216HW,2013-04-22 00:48:00,
2013-04-21 17:53:00,61.2,51.0,30.05,North,0,0.0,0.0,69,0.00,,,0.00,WUHU216HW,2013-04-22 00:53:00,
2013-04-21 17:58:00,61.0,50.9,30.05,North,0,0.0,0.0,69,0.00,,,0.00,WUHU216HW,2013-04-22 00:58:00,
2013-04-21 18:03:00,60.8,50.7,30.05,North,0,0.0,0.0,69,0.00,,,0.00,WUHU216HW,2013-04-22 01:03:00,
2013-04-21 18:08:00,60.8,50.3,30.05,North,0,0.0,0.0,68,0.00,,,0.00,WUHU216HW,2013-04-22 01:08:00,
2013-04-21 18:13:00,60.8,50.7,30.05,North,0,0.0,0.0,69,0.00,,,0.00,WUHU216HW,2013-04-22 01:13:00,
2013-04-21 18:18:00,60.8,50.7,30.05,North,0,0.0,0.0,69,0.00,,,0.00,WUHU216HW,2013-04-22 01:18:00,
2013-04-21 18:23:00,60.5,50.3,30.04,North,0,0.0,0.0,69,0.00,,,0.00,WUHU216HW,2013-04-22 01:23:00,
2013-04-21 18:28:00,60.3,50.1,30.04,North,0,0.0,0.0,69,0.00,,,0.00,WUHU216HW,2013-04-22 01:28:00,
2013-04-21 18:33:00,60.3,50.1,30.04,North,0,0.0,0.0,69,0.00,,,0.00,WUHU216HW,2013-04-22 01:33:00,
2013-04-21 18:38:00,59.9,50.2,30.04,North,0,0.0,0.0,70,0.00,,,0.00,WUHU216HW,2013-04-22 01:38:00,
2013-04-21 18:43:00,59.9,50.2,30.04,North,0,0.0,0.0,70,0.00,,,0.00,WUHU216HW,2013-04-22 01:43:00,
2013-04-21 18:48:00,59.6,49.9,30.04,North,0,0.0,0.0,70,0.00,,,0.00,WUHU216HW,2013-04-22 01:48:00,
2013-04-21 18:53:00,59.2,49.5,30.04,North,0,0.0,0.0,70,0.00,,,0.00,WUHU216HW,2013-04-22 01:53:00,
2013-04-21 18:58:00,59.0,49.7,30.04,North,0,0.0,0.0,71,0.00,,,0.00,WUHU216HW,2013-04-22 01:58:00,
2013-04-21 19:03:00,58.7,49.3,30.04,North,0,0.0,0.0,71,0.00,,,0.00,WUHU216HW,2013-04-22 02:03:00,
2013-04-21 19:08:00,58.5,49.5,30.04,North,0,0.0,0.0,72,0.00,,,0.00,WUHU216HW,2013-04-22 02:08:00,
2013-04-21 19:13:00,58.3,49.7,30.04,North,0,0.0,0.0,73,0.00,,,0.00,WUHU216HW,2013-04-22 02:13:00,
2013-04-21 19:18:00,58.0,49.3,30.04,North,0,0.0,0.0,73,0.00,,,0.00,WUHU216HW,2013-04-22 02:18:00,
2013-04-21 19:23:00,57.6,49.0,30.04,North,0,0.0,0.0,73,0.00,,,0.00,WUHU216HW,2013-04-22 02:23:00,
2013-04-21 19:28:00,57.2,48.6,30.04,North,0,0.0,0.0,73,0.00,,,0.00,WUHU216HW,2013-04-22 02:28:00,
2013-04-21 19:33:00,56.9,48.6,30.04,North,0,0.0,0.0,74,0.00,,,0.00,WUHU216HW,2013-04-22 02:33:00,
2013-04-21 19:38:00,56.5,49.0,30.04,North,0,0.0,0.0,76,0.00,,,0.00,WUHU216HW,2013-04-22 02:38:00,
2013-04-21 19:43:00,56.2,48.6,30.04,North,0,0.0,0.0,76,0.00,,,0.00,WUHU216HW,2013-04-22 02:43:00,
2013-04-21 19:48:00,55.8,48.6,30.04,North,0,0.0,0.0,77,0.00,,,0.00,WUHU216HW,2013-04-22 02:48:00,
2013-04-21 19:53:00,55.4,48.3,30.05,North,0,0.0,0.0,77,0.00,,,0.00,WUHU216HW,2013-04-22 02:53:00,
2013-04-21 19:58:00,55.3,48.5,30.05,North,0,0.0,0.0,78,0.00,,,0.00,WUHU216HW,2013-04-22 02:58:00,
2013-04-21 20:03:00,55.1,48.3,30.05,North,0,0.0,0.0,78,0.00,,,0.00,WUHU216HW,2013-04-22 03:03:00,
2013-04-21 20:08:00,54.9,48.5,30.05,North,0,0.0,0.0,79,0.00,,,0.00,WUHU216HW,2013-04-22 03:08:00,
2013-04-21 20:13:00,54.7,48.3,30.05,North,0,0.0,0.0,79,0.00,,,0.00,WUHU216HW,2013-04-22 03:13:00,
2013-04-21 20:18:00,54.5,48.2,30.05,North,0,0.0,0.0,79,0.00,,,0.00,WUHU216HW,2013-04-22 03:18:00,
2013-04-21 20:23:00,54.5,48.2,30.05,North,0,0.0,0.0,79,0.00,,,0.00,WUHU216HW,2013-04-22 03:23:00,
2013-04-21 20:28:00,54.5,48.2,30.05,North,0,0.0,0.0,79,0.00,,,0.00,WUHU216HW,2013-04-22 03:28:00,
2013-04-21 20:33:00,54.4,47.6,30.05,North,0,0.0,0.0,78,0.00,,,0.00,WUHU216HW,2013-04-22 03:33:00,
2013-04-21 20:38:00,54.2,47.5,30.05,North,0,0.0,0.0,78,0.00,,,0.00,WUHU216HW,2013-04-22 03:38:00,
2013-04-21 20:43:00,54.0,48.1,30.06,North,0,0.0,0.0,80,0.00,,,0.00,WUHU216HW,2013-04-22 03:43:00,
2013-04-21 20:48:00,53.8,47.2,30.06,North,0,0.0,0.0,78,0.00,,,0.00,WUHU216HW,2013-04-22 03:48:00,
2013-04-21 20:53:00,53.6,47.3,30.06,North,0,0.0,0.0,79,0.00,,,0.00,WUHU216HW,2013-04-22 03:53:00,
2013-04-21 20:58:00,53.6,47.0,30.06,North,0,0.0,0.0,78,0.00,,,0.00,WUHU216HW,2013-04-22 03:58:00,
2013-04-21 21:03:00,53.5,46.8,30.06,North,0,0.0,0.0,78,0.00,,,0.00,WUHU216HW,2013-04-22 04:03:00,
2013-04-21 21:08:00,53.3,46.3,30.06,North,0,0.0,0.0,77,0.00,,,0.00,WUHU216HW,2013-04-22 04:08:00,
2013-04-21 21:13:00,52.9,46.3,30.06,North,0,0.0,0.0,78,0.00,,,0.00,WUHU216HW,2013-04-22 04:13:00,
2013-04-21 21:18:00,52.7,46.1,30.06,North,0,0.0,0.0,78,0.00,,,0.00,WUHU216HW,2013-04-22 04:18:00,
2013-04-21 21:23:00,52.6,45.9,30.07,North,0,0.0,0.0,78,0.00,,,0.00,WUHU216HW,2013-04-22 04:23:00,
2013-04-21 21:28:00,52.4,45.7,30.07,North,0,0.0,0.0,78,0.00,,,0.00,WUHU216HW,2013-04-22 04:28:00,
2013-04-21 21:33:00,52.4,45.7,30.07,North,0,0.0,0.0,78,0.00,,,0.00,WUHU216HW,2013-04-22 04:33:00,
2013-04-21 21:38:00,52.4,45.7,30.07,North,0,0.0,0.0,78,0.00,,,0.00,WUHU216HW,2013-04-22 04:38:00,
2013-04-21 21:43:00,52.4,45.7,30.07,North,0,0.0,0.0,78,0.00,,,0.00,WUHU216HW,2013-04-22 04:43:00,
2013-04-21 21:48:00,52.4,45.7,30.07,North,0,0.0,0.0,78,0.00,,,0.00,WUHU216HW,2013-04-22 04:48:00,
2013-04-21 21:53:00,52.2,45.5,30.07,North,0,0.0,0.0,78,0.00,,,0.00,WUHU216HW,2013-04-22 04:53:00,
2013-04-21 21:58:00,52.0,46.1,30.07,North,0,0.0,0.0,80,0.00,,,0.00,WUHU216HW,2013-04-22 04:58:00,
2013-04-21 22:03:00,52.2,45.9,30.07,North,0,0.0,0.0,79,0.00,,,0.00,WUHU216HW,2013-04-22 05:03:00,
2013-04-21 22:08:00,52.6,45.9,30.07,North,0,0.0,0.0,78,0.00,,,0.00,WUHU216HW,2013-04-22 05:08:00,
2013-04-21 22:13:00,52.6,45.9,30.07,North,0,0.0,0.0,78,0.00,,,0.00,WUHU216HW,2013-04-22 05:13:00,
2013-04-21 22:18:00,52.9,46.3,30.07,North,0,0.0,0.0,78,0.00,,,0.00,WUHU216HW,2013-04-22 05:18:00,
2013-04-21 22:23:00,53.1,46.1,30.07,North,0,0.0,0.0,77,0.00,,,0.00,WUHU216HW,2013-04-22 05:23:00,
2013-04-21 22:28:00,53.1,45.7,30.07,North,0,0.0,0.0,76,0.00,,,0.00,WUHU216HW,2013-04-22 05:28:00,
2013-04-21 22:33:00,52.9,45.5,30.07,North,0,0.0,0.0,76,0.00,,,0.00,WUHU216HW,2013-04-22 05:33:00,
2013-04-21 22:38:00,53.3,45.9,30.07,North,0,0.0,0.0,76,0.00,,,0.00,WUHU216HW,2013-04-22 05:38:00,
2013-04-21 22:43:00,54.0,46.3,30.07,North,0,0.0,0.0,75,0.00,,,0.00,WUHU216HW,2013-04-22 05:43:00,
2013-04-21 22:48:00,54.2,46.5,30.07,North,0,0.0,0.0,75,0.00,,,0.00,WUHU216HW,2013-04-22 05:48:00,
2013-04-21 22:53:00,53.8,46.1,30.07,North,0,0.0,0.0,75,0.00,,,0.00,WUHU216HW,2013-04-22 05:53:00,
2013-04-21 22:58:00,54.0,45.9,30.07,North,0,0.0,0.0,74,0.00,,,0.00,WUHU216HW,2013-04-22 05:58:00,
2013-04-21 23:03:00,54.7,46.3,30.07,North,0,0.0,0.0,73,0.00,,,0.00,WUHU216HW,2013-04-22 06:03:00,
2013-04-21 23:09:00,54.5,46.1,30.07,North,0,0.0,0.0,73,0.00,,,0.00,WUHU216HW,2013-04-22 06:09:00,
2013-04-21 23:14:00,54.2,45.7,30.07,North,0,0.0,0.0,73,0.00,,,0.00,WUHU216HW,2013-04-22 06:14:00,
2013-04-21 23:19:00,53.6,45.2,30.06,North,0,0.0,0.0,73,0.00,,,0.00,WUHU216HW,2013-04-22 06:19:00,
2013-04-21 23:24:00,54.4,45.9,30.06,North,0,0.0,0.0,73,0.00,,,0.00,WUHU216HW,2013-04-22 06:24:00,
2013-04-21 23:29:00,54.4,45.6,30.06,North,0,0.0,0.0,72,0.00,,,0.00,WUHU216HW,2013-04-22 06:29:00,
2013-04-21 23:34:00,54.4,45.2,30.06,North,0,0.0,0.0,71,0.00,,,0.00,WUHU216HW,2013-04-22 06:34:00,
2013-04-21 23:39:00,55.8,46.3,30.06,North,0,0.0,0.0,70,0.00,,,0.00,WUHU216HW,2013-04-22 06:39:00,
2013-04-21 23:44:00,55.8,46.3,30.06,North,0,0.0,0.0,70,0.00,,,0.00,WUHU216HW,2013-04-22 06:44:00,
2013-04-21 23:49:00,55.4,45.9,30.06,North,0,0.0,0.0,70,0.00,,,0.00,WUHU216HW,2013-04-22 06:49:00,
2013-04-21 23:54:00,55.1,45.5,30.05,North,0,0.0,0.0,70,0.00,,,0.00,WUHU216HW,2013-04-22 06:54:00,
2013-04-21 23:59:00,54.9,45.4,30.05,North,0,0.0,0.0,70,0.00,,,0.00,WUHU216HW,2013-04-22 06:59:00,